<?xml version="1.0" encoding="UTF-8" standalone="no" ?><gpx xmlns="http://www.topografix.com/GPX/1/1" xmlns:gpxx="http://www.garmin.com/xmlschemas/GpxExtensions/v3" xmlns:wptx1="http://www.garmin.com/xmlschemas/WaypointExtension/v1" xmlns:gpxtpx="http://www.garmin.com/xmlschemas/TrackPointExtension/v1" creator="GuideVTT.com" version="1.1" xmlns:xsi="http://www.w3.org/2001/XMLSchema-instance" xsi:schemaLocation="http://www.topografix.com/GPX/1/1 http://www.topografix.com/GPX/1/1/gpx.xsd http://www.garmin.com/xmlschemas/GpxExtensions/v3 http://www8.garmin.com/xmlschemas/GpxExtensionsv3.xsd http://www.garmin.com/xmlschemas/WaypointExtension/v1 http://www8.garmin.com/xmlschemas/WaypointExtensionv1.xsd http://www.garmin.com/xmlschemas/TrackPointExtension/v1 http://www.garmin.com/xmlschemas/TrackPointExtensionv1.xsd">
<metadata><link href="http://www.garmin.com"><text>Garmin International</text></link><time>2013-06-22T15:13:50Z</time></metadata>
<trk><name>parcours34.gpx</name><extensions><gpxx:TrackExtension><gpxx:DisplayColor>Cyan</gpxx:DisplayColor></gpxx:TrackExtension></extensions><trkseg>
<trkpt lat="46.47306670" lon="6.79510000"><ele>387</ele><time>2005-03-25T13:19:11Z</time></trkpt>
<trkpt lat="46.47303330" lon="6.79508330"><ele>390</ele><time>2005-03-25T13:20:09Z</time></trkpt>
<trkpt lat="46.47305000" lon="6.79525000"><ele>384</ele><time>2005-03-25T13:21:54Z</time></trkpt>
<trkpt lat="46.47293330" lon="6.79555000"><ele>386</ele><time>2005-03-25T13:22:03Z</time></trkpt>
<trkpt lat="46.47281670" lon="6.79595000"><ele>386</ele><time>2005-03-25T13:22:10Z</time></trkpt>
<trkpt lat="46.47275000" lon="6.79695000"><ele>384</ele><time>2005-03-25T13:22:24Z</time></trkpt>
<trkpt lat="46.47271670" lon="6.79840000"><ele>385</ele><time>2005-03-25T13:22:47Z</time></trkpt>
<trkpt lat="46.47283330" lon="6.79838330"><ele>385</ele><time>2005-03-25T13:22:53Z</time></trkpt>
<trkpt lat="46.47305000" lon="6.79746670"><ele>392</ele><time>2005-03-25T13:23:22Z</time></trkpt>
<trkpt lat="46.47335000" lon="6.79595000"><ele>400</ele><time>2005-03-25T13:24:13Z</time></trkpt>
<trkpt lat="46.47350000" lon="6.79590000"><ele>401</ele><time>2005-03-25T14:46:01Z</time></trkpt>
<trkpt lat="46.47391670" lon="6.79535000"><ele>412</ele><time>2005-03-25T13:26:14Z</time></trkpt>
<trkpt lat="46.47421670" lon="6.79448330"><ele>427</ele><time>2005-03-25T13:27:01Z</time></trkpt>
<trkpt lat="46.47423330" lon="6.79428330"><ele>428</ele><time>2005-03-25T13:27:48Z</time></trkpt>
<trkpt lat="46.47446670" lon="6.79383330"><ele>434</ele><time>2005-03-25T13:28:18Z</time></trkpt>
<trkpt lat="46.47465000" lon="6.79340000"><ele>441</ele><time>2005-03-25T13:28:45Z</time></trkpt>
<trkpt lat="46.47478330" lon="6.79313330"><ele>445</ele><time>2005-03-25T13:29:05Z</time></trkpt>
<trkpt lat="46.47498330" lon="6.79285000"><ele>451</ele><time>2005-03-25T13:29:31Z</time></trkpt>
<trkpt lat="46.47505000" lon="6.79263330"><ele>456</ele><time>2005-03-25T13:29:46Z</time></trkpt>
<trkpt lat="46.47513330" lon="6.79265000"><ele>457</ele><time>2005-03-25T13:29:52Z</time></trkpt>
<trkpt lat="46.47511670" lon="6.79295000"><ele>457</ele><time>2005-03-25T13:30:05Z</time></trkpt>
<trkpt lat="46.47481670" lon="6.79375000"><ele>458</ele><time>2005-03-25T13:30:28Z</time></trkpt>
<trkpt lat="46.47461670" lon="6.79415000"><ele>456</ele><time>2005-03-25T13:30:36Z</time></trkpt>
<trkpt lat="46.47431670" lon="6.79548330"><ele>452</ele><time>2005-03-25T13:30:52Z</time></trkpt>
<trkpt lat="46.47433330" lon="6.79585000"><ele>453</ele><time>2005-03-25T13:30:57Z</time></trkpt>
<trkpt lat="46.47420000" lon="6.79616670"><ele>453</ele><time>2005-03-25T13:31:03Z</time></trkpt>
<trkpt lat="46.47386670" lon="6.79725000"><ele>446</ele><time>2005-03-25T13:31:14Z</time></trkpt>
<trkpt lat="46.47376670" lon="6.79825000"><ele>445</ele><time>2005-03-25T13:31:23Z</time></trkpt>
<trkpt lat="46.47376670" lon="6.79855000"><ele>445</ele><time>2005-03-25T13:31:29Z</time></trkpt>
<trkpt lat="46.47380000" lon="6.79848330"><ele>448</ele><time>2005-03-25T13:32:21Z</time></trkpt>
<trkpt lat="46.47403330" lon="6.79876670"><ele>452</ele><time>2005-03-25T13:32:45Z</time></trkpt>
<trkpt lat="46.47408330" lon="6.79891670"><ele>453</ele><time>2005-03-25T13:33:26Z</time></trkpt>
<trkpt lat="46.47406670" lon="6.79928330"><ele>452</ele><time>2005-03-25T13:33:33Z</time></trkpt>
<trkpt lat="46.47415000" lon="6.79956670"><ele>458</ele><time>2005-03-25T13:33:54Z</time></trkpt>
<trkpt lat="46.47421670" lon="6.79966670"><ele>458</ele><time>2005-03-25T13:34:04Z</time></trkpt>
<trkpt lat="46.47420000" lon="6.80000000"><ele>462</ele><time>2005-03-25T13:34:17Z</time></trkpt>
<trkpt lat="46.47408330" lon="6.80020000"><ele>463</ele><time>2005-03-25T13:34:27Z</time></trkpt>
<trkpt lat="46.47388330" lon="6.80123330"><ele>467</ele><time>2005-03-25T13:34:55Z</time></trkpt>
<trkpt lat="46.47385000" lon="6.80271670"><ele>468</ele><time>2005-03-25T13:36:05Z</time></trkpt>
<trkpt lat="46.47388330" lon="6.80306670"><ele>470</ele><time>2005-03-25T13:36:17Z</time></trkpt>
<trkpt lat="46.47388330" lon="6.80333330"><ele>472</ele><time>2005-03-25T13:36:28Z</time></trkpt>
<trkpt lat="46.47376670" lon="6.80405000"><ele>477</ele><time>2005-03-25T13:37:00Z</time></trkpt>
<trkpt lat="46.47378330" lon="6.80433330"><ele>478</ele><time>2005-03-25T13:37:13Z</time></trkpt>
<trkpt lat="46.47355000" lon="6.80520000"><ele>488</ele><time>2005-03-25T13:37:58Z</time></trkpt>
<trkpt lat="46.47351670" lon="6.80553330"><ele>492</ele><time>2005-03-25T13:38:19Z</time></trkpt>
<trkpt lat="46.47356670" lon="6.80563330"><ele>494</ele><time>2005-03-25T13:38:28Z</time></trkpt>
<trkpt lat="46.47383330" lon="6.80576670"><ele>500</ele><time>2005-03-25T13:38:54Z</time></trkpt>
<trkpt lat="46.47388330" lon="6.80586670"><ele>501</ele><time>2005-03-25T13:39:06Z</time></trkpt>
<trkpt lat="46.47385000" lon="6.80598330"><ele>502</ele><time>2005-03-25T13:40:36Z</time></trkpt>
<trkpt lat="46.47373330" lon="6.80675000"><ele>502</ele><time>2005-03-25T13:40:50Z</time></trkpt>
<trkpt lat="46.47365000" lon="6.80695000"><ele>502</ele><time>2005-03-25T13:40:54Z</time></trkpt>
<trkpt lat="46.47351670" lon="6.80771670"><ele>502</ele><time>2005-03-25T13:41:10Z</time></trkpt>
<trkpt lat="46.47350000" lon="6.80800000"><ele>503</ele><time>2005-03-25T13:41:50Z</time></trkpt>
<trkpt lat="46.47335000" lon="6.80875000"><ele>502</ele><time>2005-03-25T13:42:02Z</time></trkpt>
<trkpt lat="46.47306670" lon="6.80956670"><ele>492</ele><time>2005-03-25T13:42:14Z</time></trkpt>
<trkpt lat="46.47273330" lon="6.81040000"><ele>487</ele><time>2005-03-25T13:42:22Z</time></trkpt>
<trkpt lat="46.47268330" lon="6.81080000"><ele>485</ele><time>2005-03-25T13:42:26Z</time></trkpt>
<trkpt lat="46.47280000" lon="6.81255000"><ele>478</ele><time>2005-03-25T13:42:40Z</time></trkpt>
<trkpt lat="46.47305000" lon="6.81408330"><ele>479</ele><time>2005-03-25T13:42:53Z</time></trkpt>
<trkpt lat="46.47323330" lon="6.81463330"><ele>479</ele><time>2005-03-25T13:43:01Z</time></trkpt>
<trkpt lat="46.47333330" lon="6.81511670"><ele>480</ele><time>2005-03-25T13:43:12Z</time></trkpt>
<trkpt lat="46.47356670" lon="6.81545000"><ele>482</ele><time>2005-03-25T13:43:24Z</time></trkpt>
<trkpt lat="46.47368330" lon="6.81571670"><ele>484</ele><time>2005-03-25T13:43:37Z</time></trkpt>
<trkpt lat="46.47376670" lon="6.81605000"><ele>488</ele><time>2005-03-25T13:43:53Z</time></trkpt>
<trkpt lat="46.47378330" lon="6.81653330"><ele>490</ele><time>2005-03-25T13:44:08Z</time></trkpt>
<trkpt lat="46.47386670" lon="6.81703330"><ele>489</ele><time>2005-03-25T13:44:17Z</time></trkpt>
<trkpt lat="46.47408330" lon="6.81755000"><ele>495</ele><time>2005-03-25T13:44:42Z</time></trkpt>
<trkpt lat="46.47438330" lon="6.81838330"><ele>505</ele><time>2005-03-25T13:45:29Z</time></trkpt>
<trkpt lat="46.47440000" lon="6.81898330"><ele>512</ele><time>2005-03-25T13:45:58Z</time></trkpt>
<trkpt lat="46.47448330" lon="6.81935000"><ele>513</ele><time>2005-03-25T13:46:12Z</time></trkpt>
<trkpt lat="46.47490000" lon="6.82005000"><ele>514</ele><time>2005-03-25T13:46:53Z</time></trkpt>
<trkpt lat="46.47498330" lon="6.82003330"><ele>521</ele><time>2005-03-25T13:46:59Z</time></trkpt>
<trkpt lat="46.47481670" lon="6.82035000"><ele>529</ele><time>2005-03-25T13:47:16Z</time></trkpt>
<trkpt lat="46.47475000" lon="6.82060000"><ele>531</ele><time>2005-03-25T13:47:30Z</time></trkpt>
<trkpt lat="46.47476670" lon="6.82075000"><ele>533</ele><time>2005-03-25T13:47:42Z</time></trkpt>
<trkpt lat="46.47518330" lon="6.82153330"><ele>545</ele><time>2005-03-25T13:48:50Z</time></trkpt>
<trkpt lat="46.47521670" lon="6.82173330"><ele>548</ele><time>2005-03-25T13:49:03Z</time></trkpt>
<trkpt lat="46.47528330" lon="6.82265000"><ele>557</ele><time>2005-03-25T13:49:51Z</time></trkpt>
<trkpt lat="46.47535000" lon="6.82288330"><ele>559</ele><time>2005-03-25T13:50:13Z</time></trkpt>
<trkpt lat="46.47571670" lon="6.82303330"><ele>565</ele><time>2005-03-25T13:52:16Z</time></trkpt>
<trkpt lat="46.47581670" lon="6.82316670"><ele>568</ele><time>2005-03-25T13:52:30Z</time></trkpt>
<trkpt lat="46.47593330" lon="6.82340000"><ele>569</ele><time>2005-03-25T13:52:44Z</time></trkpt>
<trkpt lat="46.47618330" lon="6.82415000"><ele>574</ele><time>2005-03-25T13:53:21Z</time></trkpt>
<trkpt lat="46.47631670" lon="6.82473330"><ele>575</ele><time>2005-03-25T13:53:49Z</time></trkpt>
<trkpt lat="46.47638330" lon="6.82523330"><ele>576</ele><time>2005-03-25T13:54:07Z</time></trkpt>
<trkpt lat="46.47681670" lon="6.82531670"><ele>575</ele><time>2005-03-25T13:54:12Z</time></trkpt>
<trkpt lat="46.47691670" lon="6.82548330"><ele>575</ele><time>2005-03-25T13:54:17Z</time></trkpt>
<trkpt lat="46.47693330" lon="6.82640000"><ele>580</ele><time>2005-03-25T13:54:48Z</time></trkpt>
<trkpt lat="46.47676670" lon="6.82668330"><ele>588</ele><time>2005-03-25T13:55:38Z</time></trkpt>
<trkpt lat="46.47693330" lon="6.82786670"><ele>585</ele><time>2005-03-25T13:56:12Z</time></trkpt>
<trkpt lat="46.47690000" lon="6.82811670"><ele>584</ele><time>2005-03-25T13:56:16Z</time></trkpt>
<trkpt lat="46.47695000" lon="6.82945000"><ele>583</ele><time>2005-03-25T13:56:44Z</time></trkpt>
<trkpt lat="46.47705000" lon="6.82966670"><ele>582</ele><time>2005-03-25T13:56:51Z</time></trkpt>
<trkpt lat="46.47721670" lon="6.82936670"><ele>591</ele><time>2005-03-25T13:57:18Z</time></trkpt>
<trkpt lat="46.47716670" lon="6.82926670"><ele>596</ele><time>2005-03-25T13:58:01Z</time></trkpt>
<trkpt lat="46.47730000" lon="6.82866670"><ele>596</ele><time>2005-03-25T13:59:05Z</time></trkpt>
<trkpt lat="46.47735000" lon="6.82861670"><ele>597</ele><time>2005-03-25T13:59:09Z</time></trkpt>
<trkpt lat="46.47745000" lon="6.82825000"><ele>600</ele><time>2005-03-25T13:59:27Z</time></trkpt>
<trkpt lat="46.47736670" lon="6.82721670"><ele>604</ele><time>2005-03-25T13:59:52Z</time></trkpt>
<trkpt lat="46.47745000" lon="6.82651670"><ele>613</ele><time>2005-03-25T14:00:21Z</time></trkpt>
<trkpt lat="46.47760000" lon="6.82591670"><ele>622</ele><time>2005-03-25T14:00:51Z</time></trkpt>
<trkpt lat="46.47766670" lon="6.82540000"><ele>625</ele><time>2005-03-25T14:01:16Z</time></trkpt>
<trkpt lat="46.47746670" lon="6.82428330"><ele>625</ele><time>2005-03-25T14:02:12Z</time></trkpt>
<trkpt lat="46.47750000" lon="6.82406670"><ele>627</ele><time>2005-03-25T14:02:21Z</time></trkpt>
<trkpt lat="46.47761670" lon="6.82386670"><ele>629</ele><time>2005-03-25T14:02:35Z</time></trkpt>
<trkpt lat="46.47791670" lon="6.82370000"><ele>635</ele><time>2005-03-25T14:02:58Z</time></trkpt>
<trkpt lat="46.47795000" lon="6.82356670"><ele>635</ele><time>2005-03-25T14:03:03Z</time></trkpt>
<trkpt lat="46.47795000" lon="6.82266670"><ele>640</ele><time>2005-03-25T14:03:32Z</time></trkpt>
<trkpt lat="46.47801670" lon="6.82230000"><ele>641</ele><time>2005-03-25T14:03:45Z</time></trkpt>
<trkpt lat="46.47803330" lon="6.82196670"><ele>643</ele><time>2005-03-25T14:04:00Z</time></trkpt>
<trkpt lat="46.47811670" lon="6.82151670"><ele>650</ele><time>2005-03-25T14:04:27Z</time></trkpt>
<trkpt lat="46.47810000" lon="6.82105000"><ele>659</ele><time>2005-03-25T14:04:56Z</time></trkpt>
<trkpt lat="46.47801670" lon="6.82048330"><ele>664</ele><time>2005-03-25T14:05:33Z</time></trkpt>
<trkpt lat="46.47813330" lon="6.81958330"><ele>680</ele><time>2005-03-25T14:06:41Z</time></trkpt>
<trkpt lat="46.47811670" lon="6.81950000"><ele>682</ele><time>2005-03-25T14:06:47Z</time></trkpt>
<trkpt lat="46.47813330" lon="6.81921670"><ele>686</ele><time>2005-03-25T14:07:06Z</time></trkpt>
<trkpt lat="46.47828330" lon="6.81883330"><ele>692</ele><time>2005-03-25T14:07:42Z</time></trkpt>
<trkpt lat="46.47841670" lon="6.81863330"><ele>690</ele><time>2005-03-25T14:08:06Z</time></trkpt>
<trkpt lat="46.47850000" lon="6.81826670"><ele>691</ele><time>2005-03-25T14:08:45Z</time></trkpt>
<trkpt lat="46.47856670" lon="6.81825000"><ele>713</ele><time>2005-03-25T14:09:42Z</time></trkpt>
<trkpt lat="46.47855000" lon="6.81803330"><ele>711</ele><time>2005-03-25T14:09:59Z</time></trkpt>
<trkpt lat="46.47856670" lon="6.81741670"><ele>716</ele><time>2005-03-25T14:10:46Z</time></trkpt>
<trkpt lat="46.47853330" lon="6.81705000"><ele>717</ele><time>2005-03-25T14:11:00Z</time></trkpt>
<trkpt lat="46.47856670" lon="6.81625000"><ele>719</ele><time>2005-03-25T14:11:30Z</time></trkpt>
<trkpt lat="46.47853330" lon="6.81578330"><ele>719</ele><time>2005-03-25T14:11:37Z</time></trkpt>
<trkpt lat="46.47855000" lon="6.81486670"><ele>717</ele><time>2005-03-25T14:11:46Z</time></trkpt>
<trkpt lat="46.47870000" lon="6.81360000"><ele>715</ele><time>2005-03-25T14:12:06Z</time></trkpt>
<trkpt lat="46.47880000" lon="6.81333330"><ele>716</ele><time>2005-03-25T14:12:18Z</time></trkpt>
<trkpt lat="46.47903330" lon="6.81295000"><ele>715</ele><time>2005-03-25T14:12:27Z</time></trkpt>
<trkpt lat="46.47906670" lon="6.81226670"><ele>717</ele><time>2005-03-25T14:12:47Z</time></trkpt>
<trkpt lat="46.47936670" lon="6.81108330"><ele>721</ele><time>2005-03-25T14:13:29Z</time></trkpt>
<trkpt lat="46.47946670" lon="6.81080000"><ele>724</ele><time>2005-03-25T14:13:44Z</time></trkpt>
<trkpt lat="46.47960000" lon="6.81008330"><ele>727</ele><time>2005-03-25T14:14:19Z</time></trkpt>
<trkpt lat="46.47973330" lon="6.80986670"><ele>729</ele><time>2005-03-25T14:14:33Z</time></trkpt>
<trkpt lat="46.48033330" lon="6.80915000"><ele>731</ele><time>2005-03-25T14:15:35Z</time></trkpt>
<trkpt lat="46.48060000" lon="6.80875000"><ele>731</ele><time>2005-03-25T14:15:57Z</time></trkpt>
<trkpt lat="46.48161670" lon="6.80750000"><ele>731</ele><time>2005-03-25T14:17:25Z</time></trkpt>
<trkpt lat="46.48181670" lon="6.80698330"><ele>731</ele><time>2005-03-25T14:18:05Z</time></trkpt>
<trkpt lat="46.48200000" lon="6.80660000"><ele>734</ele><time>2005-03-25T14:18:29Z</time></trkpt>
<trkpt lat="46.48208330" lon="6.80636670"><ele>734</ele><time>2005-03-25T14:18:42Z</time></trkpt>
<trkpt lat="46.48215000" lon="6.80575000"><ele>735</ele><time>2005-03-25T14:19:07Z</time></trkpt>
<trkpt lat="46.48241670" lon="6.80516670"><ele>736</ele><time>2005-03-25T14:19:13Z</time></trkpt>
<trkpt lat="46.48251670" lon="6.80500000"><ele>736</ele><time>2005-03-25T14:19:15Z</time></trkpt>
<trkpt lat="46.48266670" lon="6.80453330"><ele>739</ele><time>2005-03-25T14:19:19Z</time></trkpt>
<trkpt lat="46.48318330" lon="6.80348330"><ele>742</ele><time>2005-03-25T14:19:25Z</time></trkpt>
<trkpt lat="46.48346670" lon="6.80318330"><ele>743</ele><time>2005-03-25T14:19:33Z</time></trkpt>
<trkpt lat="46.48355000" lon="6.80315000"><ele>743</ele><time>2005-03-25T14:19:35Z</time></trkpt>
<trkpt lat="46.48386670" lon="6.80331670"><ele>744</ele><time>2005-03-25T14:19:44Z</time></trkpt>
<trkpt lat="46.48388330" lon="6.80336670"><ele>745</ele><time>2005-03-25T14:19:51Z</time></trkpt>
<trkpt lat="46.48421670" lon="6.80346670"><ele>758</ele><time>2005-03-25T14:20:42Z</time></trkpt>
<trkpt lat="46.48476670" lon="6.80331670"><ele>759</ele><time>2005-03-25T14:21:01Z</time></trkpt>
<trkpt lat="46.48521670" lon="6.80331670"><ele>764</ele><time>2005-03-25T14:21:24Z</time></trkpt>
<trkpt lat="46.48615000" lon="6.80353330"><ele>764</ele><time>2005-03-25T14:22:02Z</time></trkpt>
<trkpt lat="46.48616670" lon="6.80315000"><ele>761</ele><time>2005-03-25T14:22:08Z</time></trkpt>
<trkpt lat="46.48615000" lon="6.80288330"><ele>759</ele><time>2005-03-25T14:22:10Z</time></trkpt>
<trkpt lat="46.48618330" lon="6.80251670"><ele>757</ele><time>2005-03-25T14:22:13Z</time></trkpt>
<trkpt lat="46.48611670" lon="6.80131670"><ele>748</ele><time>2005-03-25T14:22:22Z</time></trkpt>
<trkpt lat="46.48608330" lon="6.80121670"><ele>748</ele><time>2005-03-25T14:22:23Z</time></trkpt>
<trkpt lat="46.48605000" lon="6.80085000"><ele>747</ele><time>2005-03-25T14:22:26Z</time></trkpt>
<trkpt lat="46.48588330" lon="6.80040000"><ele>744</ele><time>2005-03-25T14:22:30Z</time></trkpt>
<trkpt lat="46.48525000" lon="6.79918330"><ele>740</ele><time>2005-03-25T14:22:42Z</time></trkpt>
<trkpt lat="46.48515000" lon="6.79878330"><ele>738</ele><time>2005-03-25T14:22:45Z</time></trkpt>
<trkpt lat="46.48473330" lon="6.79818330"><ele>734</ele><time>2005-03-25T14:22:51Z</time></trkpt>
<trkpt lat="46.48445000" lon="6.79806670"><ele>731</ele><time>2005-03-25T14:22:54Z</time></trkpt>
<trkpt lat="46.48343330" lon="6.79776670"><ele>724</ele><time>2005-03-25T14:23:06Z</time></trkpt>
<trkpt lat="46.48255000" lon="6.79773330"><ele>718</ele><time>2005-03-25T14:23:21Z</time></trkpt>
<trkpt lat="46.48243330" lon="6.79783330"><ele>717</ele><time>2005-03-25T14:23:24Z</time></trkpt>
<trkpt lat="46.48216670" lon="6.79783330"><ele>716</ele><time>2005-03-25T14:23:31Z</time></trkpt>
<trkpt lat="46.48193330" lon="6.79798330"><ele>719</ele><time>2005-03-25T14:23:44Z</time></trkpt>
<trkpt lat="46.48190000" lon="6.79836670"><ele>719</ele><time>2005-03-25T14:23:57Z</time></trkpt>
<trkpt lat="46.48191670" lon="6.79860000"><ele>718</ele><time>2005-03-25T14:24:06Z</time></trkpt>
<trkpt lat="46.48223330" lon="6.79990000"><ele>719</ele><time>2005-03-25T14:24:36Z</time></trkpt>
<trkpt lat="46.48213330" lon="6.80020000"><ele>720</ele><time>2005-03-25T14:24:44Z</time></trkpt>
<trkpt lat="46.48196670" lon="6.80040000"><ele>719</ele><time>2005-03-25T14:24:49Z</time></trkpt>
<trkpt lat="46.48176670" lon="6.80078330"><ele>714</ele><time>2005-03-25T14:24:54Z</time></trkpt>
<trkpt lat="46.48138330" lon="6.80141670"><ele>713</ele><time>2005-03-25T14:25:03Z</time></trkpt>
<trkpt lat="46.48115000" lon="6.80201670"><ele>709</ele><time>2005-03-25T14:25:09Z</time></trkpt>
<trkpt lat="46.48078330" lon="6.80236670"><ele>706</ele><time>2005-03-25T14:25:14Z</time></trkpt>
<trkpt lat="46.48043330" lon="6.80228330"><ele>702</ele><time>2005-03-25T14:25:18Z</time></trkpt>
<trkpt lat="46.48005000" lon="6.80226670"><ele>699</ele><time>2005-03-25T14:25:23Z</time></trkpt>
<trkpt lat="46.47983330" lon="6.80233330"><ele>695</ele><time>2005-03-25T14:25:26Z</time></trkpt>
<trkpt lat="46.47893330" lon="6.80300000"><ele>678</ele><time>2005-03-25T14:25:42Z</time></trkpt>
<trkpt lat="46.47856670" lon="6.80321670"><ele>675</ele><time>2005-03-25T14:25:48Z</time></trkpt>
<trkpt lat="46.47731670" lon="6.80360000"><ele>646</ele><time>2005-03-25T14:26:08Z</time></trkpt>
<trkpt lat="46.47676670" lon="6.80405000"><ele>640</ele><time>2005-03-25T14:26:19Z</time></trkpt>
<trkpt lat="46.47631670" lon="6.80510000"><ele>630</ele><time>2005-03-25T14:26:33Z</time></trkpt>
<trkpt lat="46.47601670" lon="6.80638330"><ele>627</ele><time>2005-03-25T14:26:48Z</time></trkpt>
<trkpt lat="46.47600000" lon="6.80661670"><ele>626</ele><time>2005-03-25T14:26:51Z</time></trkpt>
<trkpt lat="46.47603330" lon="6.80686670"><ele>623</ele><time>2005-03-25T14:26:54Z</time></trkpt>
<trkpt lat="46.47605000" lon="6.80751670"><ele>611</ele><time>2005-03-25T14:27:04Z</time></trkpt>
<trkpt lat="46.47588330" lon="6.80840000"><ele>598</ele><time>2005-03-25T14:27:22Z</time></trkpt>
<trkpt lat="46.47591670" lon="6.80843330"><ele>596</ele><time>2005-03-25T14:27:31Z</time></trkpt>
<trkpt lat="46.47595000" lon="6.80838330"><ele>587</ele><time>2005-03-25T14:29:11Z</time></trkpt>
<trkpt lat="46.47601670" lon="6.80860000"><ele>584</ele><time>2005-03-25T14:29:16Z</time></trkpt>
<trkpt lat="46.47596670" lon="6.80928330"><ele>574</ele><time>2005-03-25T14:29:24Z</time></trkpt>
<trkpt lat="46.47578330" lon="6.80960000"><ele>569</ele><time>2005-03-25T14:29:37Z</time></trkpt>
<trkpt lat="46.47565000" lon="6.80943330"><ele>568</ele><time>2005-03-25T14:29:44Z</time></trkpt>
<trkpt lat="46.47558330" lon="6.80921670"><ele>566</ele><time>2005-03-25T14:29:47Z</time></trkpt>
<trkpt lat="46.47540000" lon="6.80876670"><ele>562</ele><time>2005-03-25T14:29:52Z</time></trkpt>
<trkpt lat="46.47535000" lon="6.80801670"><ele>555</ele><time>2005-03-25T14:29:59Z</time></trkpt>
<trkpt lat="46.47520000" lon="6.80763330"><ele>552</ele><time>2005-03-25T14:30:05Z</time></trkpt>
<trkpt lat="46.47510000" lon="6.80748330"><ele>552</ele><time>2005-03-25T14:30:08Z</time></trkpt>
<trkpt lat="46.47491670" lon="6.80766670"><ele>551</ele><time>2005-03-25T14:30:14Z</time></trkpt>
<trkpt lat="46.47485000" lon="6.80846670"><ele>549</ele><time>2005-03-25T14:30:26Z</time></trkpt>
<trkpt lat="46.47481670" lon="6.80958330"><ele>545</ele><time>2005-03-25T14:30:46Z</time></trkpt>
<trkpt lat="46.47483330" lon="6.81146670"><ele>538</ele><time>2005-03-25T14:31:07Z</time></trkpt>
<trkpt lat="46.47473330" lon="6.81138330"><ele>537</ele><time>2005-03-25T14:31:13Z</time></trkpt>
<trkpt lat="46.47465000" lon="6.81110000"><ele>533</ele><time>2005-03-25T14:31:18Z</time></trkpt>
<trkpt lat="46.47455000" lon="6.81100000"><ele>531</ele><time>2005-03-25T14:31:20Z</time></trkpt>
<trkpt lat="46.47448330" lon="6.81061670"><ele>529</ele><time>2005-03-25T14:31:24Z</time></trkpt>
<trkpt lat="46.47430000" lon="6.80855000"><ele>526</ele><time>2005-03-25T14:32:02Z</time></trkpt>
<trkpt lat="46.47421670" lon="6.80831670"><ele>525</ele><time>2005-03-25T14:32:08Z</time></trkpt>
<trkpt lat="46.47403330" lon="6.80818330"><ele>522</ele><time>2005-03-25T14:32:38Z</time></trkpt>
<trkpt lat="46.47395000" lon="6.80800000"><ele>519</ele><time>2005-03-25T14:33:18Z</time></trkpt>
<trkpt lat="46.47391670" lon="6.80776670"><ele>518</ele><time>2005-03-25T14:33:22Z</time></trkpt>
<trkpt lat="46.47388330" lon="6.80728330"><ele>516</ele><time>2005-03-25T14:33:29Z</time></trkpt>
<trkpt lat="46.47393330" lon="6.80706670"><ele>517</ele><time>2005-03-25T14:33:32Z</time></trkpt>
<trkpt lat="46.47410000" lon="6.80681670"><ele>519</ele><time>2005-03-25T14:33:41Z</time></trkpt>
<trkpt lat="46.47460000" lon="6.80586670"><ele>526</ele><time>2005-03-25T14:34:22Z</time></trkpt>
<trkpt lat="46.47475000" lon="6.80535000"><ele>534</ele><time>2005-03-25T14:34:47Z</time></trkpt>
<trkpt lat="46.47505000" lon="6.80405000"><ele>535</ele><time>2005-03-25T14:35:22Z</time></trkpt>
<trkpt lat="46.47511670" lon="6.80345000"><ele>535</ele><time>2005-03-25T14:35:33Z</time></trkpt>
<trkpt lat="46.47513330" lon="6.80293330"><ele>537</ele><time>2005-03-25T14:35:46Z</time></trkpt>
<trkpt lat="46.47521670" lon="6.80241670"><ele>538</ele><time>2005-03-25T14:36:02Z</time></trkpt>
<trkpt lat="46.47535000" lon="6.80201670"><ele>542</ele><time>2005-03-25T14:36:18Z</time></trkpt>
<trkpt lat="46.47540000" lon="6.80176670"><ele>544</ele><time>2005-03-25T14:36:29Z</time></trkpt>
<trkpt lat="46.47551670" lon="6.80145000"><ele>547</ele><time>2005-03-25T14:37:35Z</time></trkpt>
<trkpt lat="46.47575000" lon="6.80068330"><ele>553</ele><time>2005-03-25T14:38:04Z</time></trkpt>
<trkpt lat="46.47586670" lon="6.79978330"><ele>552</ele><time>2005-03-25T14:38:21Z</time></trkpt>
<trkpt lat="46.47595000" lon="6.79956670"><ele>551</ele><time>2005-03-25T14:38:25Z</time></trkpt>
<trkpt lat="46.47603330" lon="6.79943330"><ele>550</ele><time>2005-03-25T14:38:27Z</time></trkpt>
<trkpt lat="46.47603330" lon="6.79905000"><ele>547</ele><time>2005-03-25T14:38:32Z</time></trkpt>
<trkpt lat="46.47580000" lon="6.79870000"><ele>546</ele><time>2005-03-25T14:38:38Z</time></trkpt>
<trkpt lat="46.47575000" lon="6.79851670"><ele>547</ele><time>2005-03-25T14:38:41Z</time></trkpt>
<trkpt lat="46.47588330" lon="6.79783330"><ele>546</ele><time>2005-03-25T14:38:53Z</time></trkpt>
<trkpt lat="46.47611670" lon="6.79743330"><ele>549</ele><time>2005-03-25T14:39:03Z</time></trkpt>
<trkpt lat="46.47620000" lon="6.79668330"><ele>554</ele><time>2005-03-25T14:39:26Z</time></trkpt>
<trkpt lat="46.47640000" lon="6.79626670"><ele>556</ele><time>2005-03-25T14:39:40Z</time></trkpt>
<trkpt lat="46.47663330" lon="6.79526670"><ele>553</ele><time>2005-03-25T14:39:52Z</time></trkpt>
<trkpt lat="46.47681670" lon="6.79490000"><ele>553</ele><time>2005-03-25T14:39:58Z</time></trkpt>
<trkpt lat="46.47678330" lon="6.79470000"><ele>548</ele><time>2005-03-25T14:40:30Z</time></trkpt>
<trkpt lat="46.47691670" lon="6.79406670"><ele>543</ele><time>2005-03-25T14:40:38Z</time></trkpt>
<trkpt lat="46.47711670" lon="6.79366670"><ele>539</ele><time>2005-03-25T14:40:42Z</time></trkpt>
<trkpt lat="46.47730000" lon="6.79273330"><ele>532</ele><time>2005-03-25T14:40:49Z</time></trkpt>
<trkpt lat="46.47731670" lon="6.79253330"><ele>532</ele><time>2005-03-25T14:40:51Z</time></trkpt>
<trkpt lat="46.47743330" lon="6.79216670"><ele>531</ele><time>2005-03-25T14:40:55Z</time></trkpt>
<trkpt lat="46.47775000" lon="6.79153330"><ele>531</ele><time>2005-03-25T14:41:03Z</time></trkpt>
<trkpt lat="46.47796670" lon="6.79065000"><ele>527</ele><time>2005-03-25T14:41:13Z</time></trkpt>
<trkpt lat="46.47801670" lon="6.79038330"><ele>526</ele><time>2005-03-25T14:41:16Z</time></trkpt>
<trkpt lat="46.47801670" lon="6.78960000"><ele>526</ele><time>2005-03-25T14:41:27Z</time></trkpt>
<trkpt lat="46.47811670" lon="6.78890000"><ele>521</ele><time>2005-03-25T14:41:46Z</time></trkpt>
<trkpt lat="46.47810000" lon="6.78881670"><ele>519</ele><time>2005-03-25T14:42:18Z</time></trkpt>
<trkpt lat="46.47840000" lon="6.78801670"><ele>520</ele><time>2005-03-25T14:42:35Z</time></trkpt>
<trkpt lat="46.47831670" lon="6.78800000"><ele>520</ele><time>2005-03-25T14:42:40Z</time></trkpt>
<trkpt lat="46.47808330" lon="6.78836670"><ele>516</ele><time>2005-03-25T14:42:50Z</time></trkpt>
<trkpt lat="46.47731670" lon="6.78960000"><ele>501</ele><time>2005-03-25T14:43:14Z</time></trkpt>
<trkpt lat="46.47716670" lon="6.79001670"><ele>495</ele><time>2005-03-25T14:43:19Z</time></trkpt>
<trkpt lat="46.47678330" lon="6.79053330"><ele>487</ele><time>2005-03-25T14:43:28Z</time></trkpt>
<trkpt lat="46.47636670" lon="6.79098330"><ele>480</ele><time>2005-03-25T14:43:37Z</time></trkpt>
<trkpt lat="46.47616670" lon="6.79136670"><ele>477</ele><time>2005-03-25T14:43:43Z</time></trkpt>
<trkpt lat="46.47571670" lon="6.79196670"><ele>469</ele><time>2005-03-25T14:43:54Z</time></trkpt>
<trkpt lat="46.47513330" lon="6.79255000"><ele>455</ele><time>2005-03-25T14:44:07Z</time></trkpt>
<trkpt lat="46.47496670" lon="6.79288330"><ele>449</ele><time>2005-03-25T14:44:15Z</time></trkpt>
<trkpt lat="46.47460000" lon="6.79345000"><ele>438</ele><time>2005-03-25T14:44:39Z</time></trkpt>
<trkpt lat="46.47455000" lon="6.79363330"><ele>434</ele><time>2005-03-25T14:45:18Z</time></trkpt>
<trkpt lat="46.47430000" lon="6.79415000"><ele>426</ele><time>2005-03-25T14:45:26Z</time></trkpt>
<trkpt lat="46.47386670" lon="6.79526670"><ele>417</ele><time>2005-03-25T14:45:44Z</time></trkpt>
<trkpt lat="46.47350000" lon="6.79590000"><ele>412</ele><time>2005-03-25T14:46:01Z</time></trkpt>
<trkpt lat="46.47325000" lon="6.79570000"><ele>412</ele><time>2005-03-25T14:46:04Z</time></trkpt>
<trkpt lat="46.47370000" lon="6.79358330"><ele>387</ele><time>2005-03-25T14:47:26Z</time></trkpt>
<trkpt lat="46.47358330" lon="6.79363330"><ele>386</ele><time>2005-03-25T14:47:30Z</time></trkpt>
<trkpt lat="46.47341670" lon="6.79420000"><ele>383</ele><time>2005-03-25T14:47:59Z</time></trkpt>
<trkpt lat="46.47341670" lon="6.79433330"><ele>382</ele><time>2005-03-25T14:48:48Z</time></trkpt>
<trkpt lat="46.47335000" lon="6.79448330"><ele>381</ele><time>2005-03-25T14:49:03Z</time></trkpt>
<trkpt lat="46.47333330" lon="6.79448330"><ele>381</ele><time>2005-03-25T14:49:13Z</time></trkpt>
<trkpt lat="46.47328330" lon="6.79470000"><ele>382</ele><time>2005-03-25T14:49:20Z</time></trkpt>
<trkpt lat="46.47305000" lon="6.79510000"><ele>383</ele><time>2005-03-25T14:49:30Z</time></trkpt>
<trkpt lat="46.47303330" lon="6.79510000"><ele>382</ele><time>2005-03-25T14:49:37Z</time></trkpt>
</trkseg></trk></gpx>